Time;durP1;ratioP1;P1;durP2;ratioP2;P2;SDS_P1;SDS_P2;PMS_P1;PMS_P2;Temp;Humidity;BMP_temperature;BMP_pressure;BME280_temperature;BME280_humidity;BME280_pressure;Samples;Min_cycle;Max_cycle;Signal;HPM_P1;HPM_P2
2023/12/06 00:00:46;;;;;;;55.95;40.72;;;0.90;1.00;;;;;;5152807;27;20236;-77
2023/12/06 00:03:13;;;;;;;56.95;40.75;;;0.90;1.00;;;;;;5152510;27;20234;-75
2023/12/06 00:05:42;;;;;;;56.80;40.85;;;0.80;1.00;;;;;;5152555;27;20230;-76
2023/12/06 00:08:09;;;;;;;62.53;42.13;;;0.80;1.00;;;;;;5152297;27;20234;-76
2023/12/06 00:10:37;;;;;;;52.53;39.70;;;0.80;1.00;;;;;;5157036;27;20264;-77
2023/12/06 00:13:05;;;;;;;53.70;40.47;;;0.80;1.00;;;;;;5157259;27;20761;-76
2023/12/06 00:15:32;;;;;;;54.58;39.70;;;0.80;1.00;;;;;;5153374;27;20245;-76
2023/12/06 00:17:59;;;;;;;56.10;42.50;;;0.90;1.00;;;;;;5146920;27;20230;-76
2023/12/06 00:20:27;;;;;;;54.75;40.10;;;0.80;1.00;;;;;;5151217;27;20233;-76
2023/12/06 00:22:55;;;;;;;56.80;40.30;;;0.80;1.00;;;;;;5153152;27;20293;-76
2023/12/06 00:25:22;;;;;;;50.55;39.65;;;0.90;1.00;;;;;;5156476;27;20244;-76
2023/12/06 00:27:50;;;;;;;56.55;38.85;;;1.00;1.00;;;;;;5154989;27;20268;-77
2023/12/06 00:30:18;;;;;;;59.30;39.72;;;1.00;1.00;;;;;;5154616;27;20311;-77
2023/12/06 00:32:45;;;;;;;56.25;41.60;;;1.00;1.00;;;;;;5154347;27;20310;-76
2023/12/06 00:35:11;;;;;;;56.00;41.33;;;1.00;1.00;;;;;;5149001;27;20233;-76
2023/12/06 00:37:40;;;;;;;58.30;40.33;;;1.00;1.00;;;;;;5156587;27;20673;-76
2023/12/06 00:40:10;;;;;;;51.97;39.88;;;1.00;1.00;;;;;;5156076;27;20234;-76
2023/12/06 00:42:37;;;;;;;56.72;39.40;;;1.00;1.00;;;;;;5154493;27;20705;-77
2023/12/06 00:45:04;;;;;;;57.95;40.53;;;1.00;1.00;;;;;;5153657;27;20242;-76
2023/12/06 00:47:31;;;;;;;58.25;41.13;;;1.00;1.00;;;;;;5155348;27;20254;-76
2023/12/06 00:49:59;;;;;;;56.13;38.55;;;1.00;1.00;;;;;;5150135;27;20273;-76
2023/12/06 00:52:26;;;;;;;54.58;38.60;;;0.90;1.00;;;;;;5153992;27;20241;-76
2023/12/06 00:54:53;;;;;;;56.53;43.20;;;0.90;1.00;;;;;;5153317;27;20226;-76
2023/12/06 00:57:21;;;;;;;59.05;41.03;;;1.00;1.00;;;;;;5155499;27;20238;-77
2023/12/06 00:59:48;;;;;;;52.90;41.38;;;1.00;1.00;;;;;;5153097;27;20237;-76
2023/12/06 01:02:15;;;;;;;58.08;41.53;;;1.00;1.00;;;;;;5152855;27;20611;-77
2023/12/06 01:04:42;;;;;;;59.42;41.40;;;1.00;1.00;;;;;;5150870;27;20421;-76
2023/12/06 01:07:09;;;;;;;59.72;43.70;;;1.00;1.00;;;;;;5152807;27;20249;-76
2023/12/06 01:09:36;;;;;;;57.78;41.92;;;1.00;1.00;;;;;;5154453;27;20238;-76
2023/12/06 01:12:03;;;;;;;56.67;42.40;;;1.00;1.00;;;;;;5154638;27;20234;-76
2023/12/06 01:14:33;;;;;;;56.55;42.72;;;1.00;1.00;;;;;;5154825;27;20237;-76
2023/12/06 01:17:00;;;;;;;57.42;42.20;;;1.00;1.00;;;;;;5154661;27;20338;-76
2023/12/06 01:19:27;;;;;;;61.00;42.70;;;1.00;1.00;;;;;;5150154;27;20283;-76
2023/12/06 01:21:54;;;;;;;56.63;39.92;;;1.00;1.00;;;;;;5150225;27;20674;-76
2023/12/06 01:24:21;;;;;;;56.00;41.17;;;1.00;1.00;;;;;;5151618;27;20758;-76
2023/12/06 01:26:48;;;;;;;52.35;40.15;;;1.00;1.00;;;;;;5151896;27;20270;-75
2023/12/06 01:29:15;;;;;;;58.58;42.95;;;1.10;1.00;;;;;;5143616;27;20234;-76
2023/12/06 01:31:43;;;;;;;57.70;42.15;;;1.00;1.00;;;;;;5150643;27;20240;-75
2023/12/06 01:34:10;;;;;;;59.80;40.55;;;1.00;1.00;;;;;;5149920;27;20245;-76
2023/12/06 01:36:37;;;;;;;57.92;41.70;;;1.00;1.00;;;;;;5150610;27;20229;-76
2023/12/06 01:39:05;;;;;;;55.28;42.05;;;1.00;1.00;;;;;;5150334;27;20295;-77
2023/12/06 01:41:32;;;;;;;50.90;38.50;;;1.10;1.00;;;;;;5150336;27;20330;-76
2023/12/06 01:43:59;;;;;;;58.90;40.22;;;1.20;1.00;;;;;;5151355;27;20725;-77
2023/12/06 01:46:28;;;;;;;50.70;38.05;;;1.10;1.00;;;;;;5151789;27;20234;-76
2023/12/06 01:49:01;;;;;;;58.15;40.25;;;1.10;1.00;;;;;;5152419;27;20316;-76
2023/12/06 01:51:30;;;;;;;56.83;39.75;;;1.20;1.00;;;;;;5150744;27;20242;-75
2023/12/06 01:53:57;;;;;;;55.03;38.80;;;1.20;1.00;;;;;;5151138;27;21041;-77
2023/12/06 01:56:24;;;;;;;61.60;41.00;;;1.20;1.00;;;;;;5155032;27;20275;-76
2023/12/06 01:58:52;;;;;;;53.63;38.22;;;1.00;1.00;;;;;;5148963;27;21019;-76
2023/12/06 02:01:19;;;;;;;55.13;40.40;;;1.00;1.00;;;;;;5150490;27;20234;-75
2023/12/06 02:03:46;;;;;;;54.47;40.28;;;1.10;1.00;;;;;;5153650;27;20238;-77
2023/12/06 02:06:14;;;;;;;57.20;41.35;;;1.10;1.00;;;;;;5146595;27;20236;-75
2023/12/06 02:08:43;;;;;;;53.03;38.25;;;1.10;1.00;;;;;;5151952;27;20238;-77
2023/12/06 02:11:10;;;;;;;52.40;41.53;;;1.10;1.00;;;;;;5149173;27;20249;-77
2023/12/06 02:13:37;;;;;;;54.97;39.05;;;1.20;1.00;;;;;;5148563;27;20382;-75
2023/12/06 02:16:06;;;;;;;58.67;42.47;;;1.10;1.00;;;;;;5151175;27;20955;-76
2023/12/06 02:18:35;;;;;;;55.00;39.42;;;1.10;1.00;;;;;;5150047;27;20233;-76
2023/12/06 02:21:04;;;;;;;54.50;41.42;;;1.20;1.00;;;;;;5154385;27;20324;-77
2023/12/06 02:23:37;;;;;;;55.95;41.40;;;1.20;1.00;;;;;;5148013;27;20324;-76
2023/12/06 02:26:05;;;;;;;56.20;39.70;;;1.30;1.00;;;;;;5149314;27;20318;-76
2023/12/06 02:28:32;;;;;;;57.80;39.60;;;1.40;1.00;;;;;;5150964;27;20266;-77
2023/12/06 02:30:59;;;;;;;54.15;40.65;;;1.30;1.00;;;;;;5149497;27;20287;-78
2023/12/06 02:33:28;;;;;;;59.20;41.15;;;1.30;1.00;;;;;;5151169;27;20348;-78
2023/12/06 02:35:59;;;;;;;49.10;38.67;;;1.20;1.00;;;;;;5148581;27;20263;-76
2023/12/06 02:38:27;;;;;;;54.42;38.13;;;1.20;1.00;;;;;;5151982;27;20257;-76
2023/12/06 02:40:55;;;;;;;52.45;40.70;;;1.00;1.00;;;;;;5147089;27;20234;-75
2023/12/06 02:43:23;;;;;;;57.40;39.13;;;0.90;1.00;;;;;;5142600;27;20756;-76
2023/12/06 02:45:51;;;;;;;54.95;39.50;;;1.00;1.00;;;;;;5162242;27;20234;-76
2023/12/06 02:48:18;;;;;;;58.28;40.85;;;1.00;1.00;;;;;;5150670;27;20238;-76
2023/12/06 02:50:45;;;;;;;54.05;40.42;;;1.10;1.00;;;;;;5147327;27;20242;-76
2023/12/06 02:53:12;;;;;;;51.42;38.35;;;1.10;1.00;;;;;;5149977;27;20288;-76
2023/12/06 02:55:38;;;;;;;59.85;42.80;;;1.00;1.00;;;;;;5150244;27;20242;-76
2023/12/06 02:58:05;;;;;;;54.10;40.80;;;1.00;1.00;;;;;;5150936;27;20728;-77
2023/12/06 03:00:34;;;;;;;57.67;39.13;;;1.00;1.00;;;;;;5152445;27;20261;-75
2023/12/06 03:03:01;;;;;;;57.75;39.47;;;1.00;1.00;;;;;;5149291;27;20238;-77
2023/12/06 03:05:29;;;;;;;55.05;38.10;;;1.10;1.00;;;;;;5148834;27;20230;-77
2023/12/06 03:07:56;;;;;;;53.25;39.40;;;1.10;1.00;;;;;;5150494;27;20261;-76
2023/12/06 03:10:23;;;;;;;57.88;39.60;;;1.20;1.00;;;;;;5151001;27;20318;-76
2023/12/06 03:12:50;;;;;;;54.10;39.15;;;1.30;1.00;;;;;;5150249;27;20364;-76
2023/12/06 03:15:17;;;;;;;53.30;36.35;;;1.30;1.00;;;;;;5151294;27;20323;-77
2023/12/06 03:17:45;;;;;;;53.13;39.08;;;1.30;1.00;;;;;;5151358;27;20245;-77
2023/12/06 03:20:12;;;;;;;55.97;38.50;;;1.40;1.00;;;;;;5151983;27;20287;-76
2023/12/06 03:22:39;;;;;;;60.88;40.20;;;1.40;1.00;;;;;;5149152;27;20245;-75
2023/12/06 03:25:08;;;;;;;52.67;37.65;;;1.40;1.00;;;;;;5148494;27;20628;-77
2023/12/06 03:27:35;;;;;;;54.10;39.28;;;1.30;1.00;;;;;;5145665;27;20710;-76
2023/12/06 03:30:03;;;;;;;51.92;39.15;;;1.30;1.00;;;;;;5142955;27;20320;-76
2023/12/06 03:32:30;;;;;;;54.75;40.15;;;1.30;1.00;;;;;;5151960;27;20241;-76
2023/12/06 03:34:58;;;;;;;53.05;40.53;;;1.30;1.00;;;;;;5148708;27;20249;-76
2023/12/06 03:37:25;;;;;;;54.50;39.97;;;1.30;1.00;;;;;;5147317;27;20704;-74
2023/12/06 03:39:52;;;;;;;52.40;37.03;;;1.30;1.00;;;;;;5143492;27;20307;-75
2023/12/06 03:42:19;;;;;;;55.42;39.38;;;1.40;1.00;;;;;;5149256;27;20321;-75
2023/12/06 03:44:46;;;;;;;50.28;36.88;;;1.40;1.00;;;;;;5150023;27;20237;-76
2023/12/06 03:47:13;;;;;;;55.58;39.30;;;1.40;1.00;;;;;;5148694;27;20768;-75
2023/12/06 03:49:40;;;;;;;51.38;38.13;;;1.30;1.00;;;;;;5150533;27;20265;-76
2023/12/06 03:52:09;;;;;;;59.00;40.72;;;1.20;1.00;;;;;;5149991;27;20431;-75
2023/12/06 03:54:36;;;;;;;57.80;39.88;;;1.20;1.00;;;;;;5150341;27;20234;-75
2023/12/06 03:57:03;;;;;;;64.80;41.65;;;1.20;1.00;;;;;;5149942;27;20230;-76
2023/12/06 03:59:30;;;;;;;61.55;39.47;;;1.20;1.00;;;;;;5153027;27;20276;-75
2023/12/06 04:01:57;;;;;;;55.58;38.53;;;1.20;1.00;;;;;;5150878;27;20290;-77
2023/12/06 04:04:24;;;;;;;55.08;38.35;;;1.20;1.00;;;;;;5149569;27;20249;-76
2023/12/06 04:06:51;;;;;;;53.15;39.90;;;1.10;1.00;;;;;;5151802;27;20309;-76
2023/12/06 04:09:20;;;;;;;54.40;40.55;;;1.10;1.00;;;;;;5151547;27;20238;-76
2023/12/06 04:11:47;;;;;;;58.30;42.53;;;1.10;1.00;;;;;;5150767;27;20317;-76
2023/12/06 04:14:14;;;;;;;64.25;41.28;;;1.20;1.00;;;;;;5149102;27;20265;-76
2023/12/06 04:16:41;;;;;;;58.20;40.85;;;1.20;1.00;;;;;;5149397;27;20256;-76
2023/12/06 04:19:08;;;;;;;56.42;39.35;;;1.20;1.00;;;;;;5147850;27;20238;-77
2023/12/06 04:21:35;;;;;;;55.28;37.95;;;1.10;1.00;;;;;;5150751;27;20280;-76
2023/12/06 04:24:02;;;;;;;57.28;40.30;;;1.10;1.00;;;;;;5145775;27;20698;-77
2023/12/06 04:26:30;;;;;;;60.83;40.35;;;1.10;1.00;;;;;;5152147;27;20341;-76
2023/12/06 04:28:57;;;;;;;60.38;41.25;;;1.10;1.00;;;;;;5151318;27;20234;-77
2023/12/06 04:31:24;;;;;;;60.72;41.58;;;1.10;1.00;;;;;;5152847;27;21760;-76
2023/12/06 04:33:51;;;;;;;57.85;42.20;;;1.10;1.00;;;;;;5148694;27;20341;-76
2023/12/06 04:36:18;;;;;;;65.93;44.35;;;1.10;1.00;;;;;;5150984;27;20229;-75
2023/12/06 04:38:46;;;;;;;57.10;41.25;;;1.10;1.00;;;;;;5148862;27;20269;-77
2023/12/06 04:41:13;;;;;;;57.78;40.78;;;1.00;1.00;;;;;;5147963;27;20265;-76
2023/12/06 04:43:41;;;;;;;60.65;42.35;;;1.10;1.00;;;;;;5148159;27;20267;-77
2023/12/06 04:46:08;;;;;;;56.22;41.13;;;1.20;1.00;;;;;;5150894;27;21007;-76
2023/12/06 04:48:35;;;;;;;55.33;41.88;;;1.20;1.00;;;;;;5143491;27;20239;-76
2023/12/06 04:51:02;;;;;;;60.35;42.53;;;1.20;1.00;;;;;;5147715;27;20236;-78
2023/12/06 04:53:29;;;;;;;62.20;43.40;;;1.30;1.00;;;;;;5148194;27;20246;-76
2023/12/06 04:55:56;;;;;;;59.63;42.30;;;1.30;1.00;;;;;;5142112;27;20324;-76
2023/12/06 04:58:23;;;;;;;66.18;43.60;;;1.30;1.00;;;;;;5148763;27;20295;-76
2023/12/06 05:00:52;;;;;;;58.03;40.72;;;1.30;1.00;;;;;;5148451;27;20336;-76
2023/12/06 05:03:20;;;;;;;55.78;41.05;;;1.30;1.00;;;;;;5140022;27;21624;-77
2023/12/06 05:05:47;;;;;;;59.97;41.03;;;1.30;1.00;;;;;;5149826;27;20332;-78
2023/12/06 05:08:14;;;;;;;61.55;43.08;;;1.30;1.00;;;;;;5150331;27;20788;-76
2023/12/06 05:10:41;;;;;;;58.03;41.30;;;1.30;1.00;;;;;;5152638;27;20246;-76
2023/12/06 05:13:08;;;;;;;58.42;42.00;;;1.30;1.00;;;;;;5146415;27;20409;-77
2023/12/06 05:15:35;;;;;;;57.83;43.60;;;1.40;1.00;;;;;;5150902;27;20321;-77
2023/12/06 05:18:04;;;;;;;61.90;43.95;;;1.30;1.00;;;;;;5150470;27;20242;-77
2023/12/06 05:20:31;;;;;;;60.53;42.53;;;1.30;1.00;;;;;;5155029;27;20254;-77
2023/12/06 05:22:58;;;;;;;59.13;41.30;;;1.30;1.00;;;;;;5147668;27;20235;-77
2023/12/06 05:25:25;;;;;;;58.42;40.10;;;1.40;1.00;;;;;;5148652;27;20252;-78
2023/12/06 05:27:53;;;;;;;60.05;40.90;;;1.30;1.00;;;;;;5147528;27;21174;-77
2023/12/06 05:30:22;;;;;;;58.72;42.40;;;1.40;1.00;;;;;;5153107;27;20331;-77
2023/12/06 05:32:49;;;;;;;66.40;44.05;;;1.30;1.00;;;;;;5149118;27;20270;-77
2023/12/06 05:35:22;;;;;;;57.72;40.78;;;1.20;1.00;;;;;;5152858;27;20688;-77
2023/12/06 05:37:50;;;;;;;58.35;41.85;;;1.20;1.00;;;;;;5153953;27;20256;-78
2023/12/06 05:40:19;;;;;;;62.72;42.25;;;1.20;1.00;;;;;;5149904;27;20362;-77
2023/12/06 05:42:46;;;;;;;56.63;43.38;;;1.10;1.00;;;;;;5150485;27;20383;-79
2023/12/06 05:45:14;;;;;;;62.75;43.72;;;1.20;1.00;;;;;;5144260;27;20229;-77
2023/12/06 05:47:44;;;;;;;63.47;44.72;;;1.20;1.00;;;;;;5153065;27;21170;-76
2023/12/06 05:50:14;;;;;;;63.22;44.95;;;1.20;1.00;;;;;;5153012;27;20253;-78
2023/12/06 05:52:42;;;;;;;59.63;42.25;;;1.20;1.00;;;;;;5149920;27;20229;-77
2023/12/06 05:55:10;;;;;;;64.22;41.70;;;1.20;1.00;;;;;;5149514;27;20230;-76
2023/12/06 05:57:37;;;;;;;59.60;41.33;;;1.20;1.00;;;;;;5153232;27;20234;-78
2023/12/06 06:00:08;;;;;;;66.53;40.63;;;1.30;1.00;;;;;;5145202;27;20322;-77
2023/12/06 06:02:35;;;;;;;56.45;41.97;;;1.40;1.00;;;;;;5145119;27;20234;-77
2023/12/06 06:05:02;;;;;;;56.78;39.97;;;1.40;1.00;;;;;;5148544;27;20300;-77
2023/12/06 06:07:29;;;;;;;56.05;40.65;;;1.30;1.00;;;;;;5147343;27;20234;-77
2023/12/06 06:09:58;;;;;;;64.53;46.00;;;1.30;1.00;;;;;;5156633;27;20279;-78
2023/12/06 06:12:25;;;;;;;58.47;39.70;;;1.30;1.00;;;;;;5149846;27;20230;-78
2023/12/06 06:14:52;;;;;;;71.90;46.55;;;1.30;1.00;;;;;;5149964;27;20252;-78
2023/12/06 06:17:19;;;;;;;66.40;43.28;;;1.40;1.00;;;;;;5146605;27;21018;-76
2023/12/06 06:19:46;;;;;;;58.35;40.67;;;1.30;1.00;;;;;;5148384;27;20365;-80
2023/12/06 06:22:13;;;;;;;63.15;44.17;;;1.20;1.00;;;;;;5148431;27;20248;-79
2023/12/06 06:24:40;;;;;;;58.47;42.78;;;1.10;1.00;;;;;;5158862;27;20230;-77
2023/12/06 06:27:08;;;;;;;60.25;40.97;;;1.10;1.00;;;;;;5149552;27;20284;-77
2023/12/06 06:29:37;;;;;;;63.33;41.22;;;1.20;1.00;;;;;;5151933;27;20238;-77
2023/12/06 06:32:06;;;;;;;57.22;40.70;;;1.10;1.00;;;;;;5151582;27;20234;-78
2023/12/06 06:34:33;;;;;;;67.38;42.70;;;1.10;1.00;;;;;;5150625;27;20949;-77
2023/12/06 06:37:00;;;;;;;58.85;39.55;;;1.20;1.00;;;;;;5148852;27;20348;-78
2023/12/06 06:39:28;;;;;;;63.20;40.97;;;1.30;1.00;;;;;;5147922;27;20758;-77
2023/12/06 06:41:55;;;;;;;62.03;41.60;;;1.30;1.00;;;;;;5149793;27;20781;-78
2023/12/06 06:44:24;;;;;;;65.60;44.53;;;1.30;1.00;;;;;;5150281;27;20309;-78
2023/12/06 06:46:51;;;;;;;54.45;38.70;;;1.40;1.00;;;;;;5144013;27;20229;-78
2023/12/06 06:49:18;;;;;;;56.20;40.13;;;1.40;1.00;;;;;;5148248;27;21163;-77
2023/12/06 06:51:45;;;;;;;57.05;39.58;;;1.40;1.00;;;;;;5149692;27;20233;-78
2023/12/06 06:54:13;;;;;;;61.25;42.50;;;1.40;1.00;;;;;;5144835;27;20313;-77
2023/12/06 06:56:40;;;;;;;55.13;39.33;;;1.40;1.00;;;;;;5149101;27;20301;-77
2023/12/06 06:59:07;;;;;;;65.43;43.50;;;1.50;1.00;;;;;;5151385;27;20708;-78
2023/12/06 07:01:36;;;;;;;59.35;42.65;;;1.50;1.00;;;;;;5152739;27;20261;-79
2023/12/06 07:04:03;;;;;;;58.30;40.80;;;1.50;1.00;;;;;;5141611;27;20241;-80
2023/12/06 07:06:31;;;;;;;59.20;42.25;;;1.40;1.00;;;;;;5150821;27;20252;-79
2023/12/06 07:08:58;;;;;;;66.05;46.47;;;1.40;1.00;;;;;;5152465;27;20240;-79
2023/12/06 07:11:25;;;;;;;64.25;43.60;;;1.30;1.00;;;;;;5151911;27;20967;-79
2023/12/06 07:13:52;;;;;;;59.67;40.95;;;1.30;1.00;;;;;;5152131;27;21105;-79
2023/12/06 07:16:28;;;;;;;62.67;40.63;;;1.40;1.00;;;;;;5151466;27;20267;-79
2023/12/06 07:19:00;;;;;;;60.63;40.05;;;1.40;1.00;;;;;;5149673;27;20290;-81
2023/12/06 07:21:27;;;;;;;58.28;41.05;;;1.30;1.00;;;;;;5149590;27;21056;-79
2023/12/06 07:23:56;;;;;;;57.80;41.22;;;1.20;1.00;;;;;;5153022;27;20261;-78
2023/12/06 07:26:23;;;;;;;67.55;41.47;;;1.20;1.00;;;;;;5151027;27;20302;-80
2023/12/06 07:28:51;;;;;;;63.30;40.72;;;1.20;1.00;;;;;;5153203;27;20243;-78
2023/12/06 07:31:20;;;;;;;66.57;41.70;;;1.20;1.00;;;;;;5147893;27;20954;-79
2023/12/06 07:33:47;;;;;;;62.65;41.92;;;1.20;1.00;;;;;;5151110;27;21140;-79
2023/12/06 07:36:16;;;;;;;59.58;40.83;;;1.30;1.00;;;;;;5154528;27;20230;-78
2023/12/06 07:38:43;;;;;;;57.72;41.45;;;1.20;1.00;;;;;;5150094;27;20270;-78
2023/12/06 07:41:12;;;;;;;60.90;42.55;;;1.20;1.00;;;;;;5146058;27;20317;-84
2023/12/06 07:43:39;;;;;;;66.05;43.30;;;1.20;1.00;;;;;;5147909;27;20230;-85
2023/12/06 07:46:08;;;;;;;59.95;42.33;;;1.20;1.00;;;;;;5148942;27;20241;-80
2023/12/06 07:48:41;;;;;;;60.45;44.60;;;1.20;1.00;;;;;;5149008;27;20290;-85
2023/12/06 07:51:08;;;;;;;67.47;43.35;;;1.20;1.00;;;;;;5147646;27;20330;-83
2023/12/06 07:53:39;;;;;;;65.88;41.63;;;1.10;1.00;;;;;;5146423;27;20238;-82
2023/12/06 07:56:07;;;;;;;61.67;40.13;;;1.20;1.00;;;;;;5152752;27;20234;-82
2023/12/06 07:58:34;;;;;;;61.35;41.47;;;1.10;1.00;;;;;;5151618;27;20329;-80
2023/12/06 08:01:03;;;;;;;60.45;43.03;;;1.10;1.00;;;;;;5152011;27;20936;-78
2023/12/06 08:03:31;;;;;;;65.63;44.08;;;1.00;1.00;;;;;;5150574;27;20234;-81
2023/12/06 08:05:59;;;;;;;61.47;42.47;;;1.00;1.00;;;;;;5152684;27;20230;-82
2023/12/06 08:08:28;;;;;;;65.53;44.78;;;1.10;1.00;;;;;;5150089;27;21200;-80
2023/12/06 08:10:58;;;;;;;61.35;44.20;;;1.10;1.00;;;;;;5147534;27;20414;-82
2023/12/06 08:13:27;;;;;;;65.40;47.17;;;1.20;1.00;;;;;;5155927;27;20301;-80
2023/12/06 08:15:54;;;;;;;73.90;46.65;;;1.10;1.00;;;;;;5153691;27;20237;-79
2023/12/06 08:18:21;;;;;;;58.30;42.70;;;1.10;1.00;;;;;;5151170;27;20318;-78
2023/12/06 08:20:50;;;;;;;65.35;43.88;;;1.20;1.00;;;;;;5140299;27;20356;-79
2023/12/06 08:23:17;;;;;;;62.33;43.00;;;1.20;1.00;;;;;;5146546;27;20337;-81
2023/12/06 08:25:45;;;;;;;63.38;44.75;;;1.20;1.00;;;;;;5152309;27;20242;-77
2023/12/06 08:28:17;;;;;;;61.22;43.13;;;1.30;1.00;;;;;;5146206;27;20352;-76
2023/12/06 08:30:45;;;;;;;65.60;45.65;;;1.30;1.00;;;;;;5149208;27;20360;-78
2023/12/06 08:33:13;;;;;;;60.88;41.45;;;1.40;1.00;;;;;;5148861;27;20238;-79
2023/12/06 08:35:40;;;;;;;64.85;44.33;;;1.50;1.00;;;;;;5147799;27;20336;-78
2023/12/06 08:38:08;;;;;;;67.47;43.00;;;1.60;1.00;;;;;;5154780;27;20259;-79
2023/12/06 08:40:37;;;;;;;56.95;42.17;;;1.50;1.00;;;;;;5153470;27;20222;-81
2023/12/06 08:43:06;;;;;;;72.40;42.30;;;1.40;1.00;;;;;;5149823;27;20275;-81
2023/12/06 08:45:35;;;;;;;70.88;46.38;;;1.40;1.00;;;;;;5155719;27;20240;-80
2023/12/06 08:48:05;;;;;;;65.35;42.15;;;1.50;1.00;;;;;;5146229;27;20242;-80
2023/12/06 08:50:32;;;;;;;65.32;45.28;;;1.60;1.00;;;;;;5150406;27;20693;-77
2023/12/06 08:52:59;;;;;;;57.35;40.72;;;1.60;1.00;;;;;;5141444;27;20325;-79
2023/12/06 08:55:27;;;;;;;65.32;42.67;;;1.60;1.00;;;;;;5148732;27;26951;-78
2023/12/06 08:57:54;;;;;;;65.03;43.47;;;1.50;1.00;;;;;;5151125;27;20245;-79
2023/12/06 09:00:21;;;;;;;63.95;42.15;;;1.50;1.00;;;;;;5152706;27;20318;-79
2023/12/06 09:02:49;;;;;;;61.20;42.63;;;1.50;1.00;;;;;;5150135;27;20234;-78
2023/12/06 09:05:16;;;;;;;61.95;41.60;;;1.40;1.00;;;;;;5152747;27;21160;-80
2023/12/06 09:07:44;;;;;;;61.83;43.88;;;1.40;1.00;;;;;;5150894;27;20238;-78
2023/12/06 09:10:11;;;;;;;63.78;43.17;;;1.40;1.00;;;;;;5154915;27;20244;-78
2023/12/06 09:12:42;;;;;;;100.43;80.93;;;1.40;1.00;;;;;;5160278;27;20226;-77
2023/12/06 09:15:10;;;;;;;61.50;44.78;;;1.40;1.00;;;;;;5150570;27;20241;-78
2023/12/06 09:17:38;;;;;;;66.30;46.28;;;1.50;1.00;;;;;;5152933;27;20756;-76
2023/12/06 09:20:07;;;;;;;62.53;42.17;;;1.50;1.00;;;;;;5153075;27;20721;-77
2023/12/06 09:22:34;;;;;;;59.70;41.25;;;1.60;1.00;;;;;;5154051;27;20267;-79
2023/12/06 09:25:04;;;;;;;59.78;40.85;;;1.70;1.00;;;;;;5151981;27;20241;-77
2023/12/06 09:27:32;;;;;;;60.05;39.65;;;1.60;1.00;;;;;;5147376;27;20226;-79
2023/12/06 09:29:59;;;;;;;60.75;42.92;;;1.60;1.00;;;;;;5150135;27;20283;-76
2023/12/06 09:32:28;;;;;;;63.75;42.92;;;1.60;1.00;;;;;;5149980;27;20774;-78
2023/12/06 09:34:55;;;;;;;67.53;44.92;;;1.60;1.00;;;;;;5151934;27;20238;-75
2023/12/06 09:37:24;;;;;;;54.42;40.60;;;1.60;1.00;;;;;;5151012;27;20234;-77
2023/12/06 09:39:51;;;;;;;57.42;40.38;;;1.70;1.00;;;;;;5152073;27;20316;-76
2023/12/06 09:42:19;;;;;;;59.25;42.38;;;1.70;1.00;;;;;;5151474;27;20238;-80
2023/12/06 09:44:48;;;;;;;60.05;39.85;;;1.70;1.00;;;;;;5149048;27;20238;-80
2023/12/06 09:47:15;;;;;;;59.25;39.95;;;1.60;1.00;;;;;;5151906;27;20824;-77
2023/12/06 09:49:47;;;;;;;58.00;42.20;;;1.60;1.00;;;;;;5149047;27;20290;-77
2023/12/06 09:52:22;;;;;;;63.55;41.05;;;1.60;1.00;;;;;;5149706;27;20305;-77
2023/12/06 09:54:51;;;;;;;69.00;43.70;;;1.60;1.00;;;;;;5150452;27;20290;-78
2023/12/06 09:57:19;;;;;;;61.55;41.15;;;1.50;1.00;;;;;;5151618;27;20234;-78
2023/12/06 09:59:46;;;;;;;59.28;40.88;;;1.60;1.00;;;;;;5151883;27;20261;-80
2023/12/06 10:02:13;;;;;;;56.58;41.00;;;1.60;1.00;;;;;;5152138;27;20596;-78
2023/12/06 10:04:43;;;;;;;56.25;39.90;;;1.70;1.00;;;;;;5149872;27;20242;-78
2023/12/06 10:07:10;;;;;;;60.60;41.70;;;1.70;1.00;;;;;;5149480;27;20258;-78
2023/12/06 10:09:48;;;;;;;62.90;39.95;;;1.60;1.00;;;;;;5154405;27;20253;-76
2023/12/06 10:12:18;;;;;;;61.40;41.83;;;1.60;1.00;;;;;;5150964;27;20740;-78
2023/12/06 10:14:49;;;;;;;58.95;41.47;;;1.60;1.00;;;;;;5154199;27;20230;-78
2023/12/06 10:17:18;;;;;;;56.30;38.58;;;1.60;1.00;;;;;;5155259;27;20229;-79
2023/12/06 10:19:45;;;;;;;61.28;43.42;;;1.70;1.00;;;;;;5152406;27;20234;-78
2023/12/06 10:22:12;;;;;;;64.13;40.45;;;1.60;1.00;;;;;;5144962;27;20237;-80
2023/12/06 10:24:47;;;;;;;60.28;42.25;;;1.60;1.00;;;;;;5155394;27;20230;-79
2023/12/06 10:27:15;;;;;;;58.38;41.30;;;1.70;1.00;;;;;;5141842;27;20286;-79
2023/12/06 10:29:43;;;;;;;62.72;40.45;;;1.80;1.00;;;;;;5163385;27;21446;-79
2023/12/06 10:32:16;;;;;;;58.45;41.65;;;1.90;1.00;;;;;;5149886;27;20319;-80
2023/12/06 10:34:43;;;;;;;79.63;57.20;;;1.90;1.00;;;;;;5149886;27;20850;-77
2023/12/06 10:37:13;;;;;;;67.82;43.63;;;2.00;1.00;;;;;;5148899;27;20233;-75
2023/12/06 10:39:44;;;;;;;62.20;44.22;;;1.90;1.00;;;;;;5150412;27;20231;-76
2023/12/06 10:42:19;;;;;;;54.60;40.00;;;1.90;1.00;;;;;;5149907;27;21067;-80
2023/12/06 10:44:48;;;;;;;55.45;39.80;;;2.00;1.00;;;;;;5148150;27;20237;-80
2023/12/06 10:47:17;;;;;;;56.78;38.60;;;2.00;1.00;;;;;;5146041;27;20230;-79
2023/12/06 10:49:46;;;;;;;58.00;39.92;;;1.90;1.00;;;;;;5146992;27;20238;-82
2023/12/06 10:52:14;;;;;;;57.88;40.70;;;2.00;1.00;;;;;;5150510;27;21071;-80
2023/12/06 10:54:43;;;;;;;56.10;40.00;;;2.00;1.00;;;;;;5147564;27;20355;-79
2023/12/06 10:57:10;;;;;;;64.95;44.35;;;2.00;1.00;;;;;;5148854;27;20290;-78
2023/12/06 10:59:38;;;;;;;58.65;41.25;;;2.10;1.00;;;;;;5137420;27;20245;-78
2023/12/06 11:02:10;;;;;;;55.83;41.78;;;2.10;1.00;;;;;;5145977;27;20257;-78
2023/12/06 11:04:44;;;;;;;63.58;39.28;;;2.30;1.00;;;;;;5146521;27;20305;-77
2023/12/06 11:07:24;;;;;;;57.88;40.10;;;2.30;1.00;;;;;;5147661;27;20276;-76
2023/12/06 11:10:08;;;;;;;57.85;39.83;;;2.30;1.00;;;;;;5151663;27;20904;-79
2023/12/06 11:12:48;;;;;;;59.63;41.00;;;2.30;1.00;;;;;;5150446;27;20325;-80
2023/12/06 11:15:28;;;;;;;54.80;38.38;;;2.30;1.00;;;;;;5145577;27;20237;-79
2023/12/06 11:18:09;;;;;;;54.10;41.30;;;2.30;1.00;;;;;;5151569;27;20230;-78
2023/12/06 11:20:38;;;;;;;57.63;39.67;;;2.20;1.00;;;;;;5148472;27;20977;-79
2023/12/06 11:23:06;;;;;;;58.42;41.63;;;2.20;1.00;;;;;;5152144;27;20755;-78
2023/12/06 11:25:33;;;;;;;55.60;39.65;;;2.30;1.00;;;;;;5151702;27;20237;-79
2023/12/06 11:28:01;;;;;;;58.20;40.08;;;2.30;1.00;;;;;;5147736;27;20735;-79
2023/12/06 11:30:28;;;;;;;54.25;38.78;;;2.30;1.00;;;;;;5153260;27;20250;-79
2023/12/06 11:32:59;;;;;;;55.95;41.13;;;2.30;1.00;;;;;;5145704;27;20229;-79
2023/12/06 11:35:26;;;;;;;56.40;41.88;;;2.30;1.00;;;;;;5147745;27;20221;-79
2023/12/06 11:37:55;;;;;;;61.78;41.05;;;2.30;1.00;;;;;;5150833;27;20245;-79
2023/12/06 11:40:27;;;;;;;59.28;41.15;;;2.40;1.00;;;;;;5147370;27;20257;-79
2023/12/06 11:43:01;;;;;;;57.60;39.25;;;2.40;1.00;;;;;;5148125;27;20317;-79
2023/12/06 11:45:30;;;;;;;54.17;38.17;;;2.40;1.00;;;;;;5145982;27;20233;-79
2023/12/06 11:48:02;;;;;;;63.67;42.45;;;2.40;1.00;;;;;;5145421;27;20238;-80
2023/12/06 11:50:41;;;;;;;56.28;40.85;;;2.40;1.00;;;;;;5148190;27;20322;-78
2023/12/06 11:53:12;;;;;;;63.33;40.17;;;2.40;1.00;;;;;;5149009;27;20701;-78
2023/12/06 11:55:42;;;;;;;59.40;39.97;;;2.40;1.00;;;;;;5148475;27;20708;-79
2023/12/06 11:58:11;;;;;;;55.33;38.83;;;2.40;1.00;;;;;;5149861;27;20279;-79
2023/12/06 12:00:41;;;;;;;56.78;38.90;;;2.40;1.00;;;;;;5143786;27;20234;-79
2023/12/06 12:03:10;;;;;;;59.15;40.65;;;2.40;1.00;;;;;;5147401;27;20248;-78
2023/12/06 12:05:38;;;;;;;54.85;38.80;;;2.40;1.00;;;;;;5144729;27;20241;-79
2023/12/06 12:08:11;;;;;;;59.33;42.13;;;2.40;1.00;;;;;;5149938;27;21086;-79
2023/12/06 12:10:40;;;;;;;63.22;41.00;;;2.40;1.00;;;;;;5147828;27;20686;-77
2023/12/06 12:13:17;;;;;;;51.28;39.65;;;2.40;1.00;;;;;;5149447;27;20230;-77
2023/12/06 12:15:52;;;;;;;59.92;41.45;;;2.40;1.00;;;;;;5155764;27;20260;-77
2023/12/06 12:18:22;;;;;;;61.72;43.90;;;2.40;1.00;;;;;;5156477;27;20258;-78
2023/12/06 12:20:52;;;;;;;53.80;39.80;;;2.40;1.00;;;;;;5155157;27;20234;-78
2023/12/06 12:23:19;;;;;;;55.40;38.05;;;2.40;1.00;;;;;;5155225;27;20240;-77
2023/12/06 12:25:47;;;;;;;57.97;39.38;;;2.40;1.00;;;;;;5157532;27;20743;-79
2023/12/06 12:28:20;;;;;;;46.08;36.38;;;2.60;1.00;;;;;;5154478;27;20274;-79
2023/12/06 12:30:51;;;;;;;62.28;41.08;;;2.60;1.00;;;;;;5158734;27;20229;-77
2023/12/06 12:33:21;;;;;;;54.28;38.22;;;2.50;1.00;;;;;;5158350;27;20229;-78
2023/12/06 12:35:48;;;;;;;60.45;41.13;;;2.60;1.00;;;;;;5154530;27;20306;-77
2023/12/06 12:38:16;;;;;;;57.85;40.13;;;2.60;1.00;;;;;;5156348;27;20238;-82
2023/12/06 12:40:45;;;;;;;49.22;36.58;;;2.60;1.00;;;;;;5160609;27;20265;-79
2023/12/06 12:43:14;;;;;;;51.08;38.80;;;2.60;1.00;;;;;;5151724;27;20244;-80
2023/12/06 12:45:41;;;;;;;55.50;38.15;;;2.70;1.00;;;;;;5158957;27;21114;-78
2023/12/06 12:48:09;;;;;;;53.10;36.55;;;2.60;1.00;;;;;;5158390;27;20286;-81
2023/12/06 12:50:38;;;;;;;57.22;39.40;;;2.60;1.00;;;;;;5145838;27;20341;-78
2023/12/06 12:53:06;;;;;;;51.08;37.90;;;2.60;1.00;;;;;;5150857;27;20238;-79